sensor_id;sensor_type;location;lat;lon;timestamp;P1;durP1;ratioP1;P2;durP2;ratioP2
41167;SDS011;26906;45.658;9.272;2022-10-13T05:39:00;50.08;;;33.05;;
41167;SDS011;26906;45.658;9.272;2022-10-13T05:41:29;42.63;;;30.55;;
41167;SDS011;26906;45.658;9.272;2022-10-13T05:43:57;46.47;;;31.33;;
41167;SDS011;26906;45.658;9.272;2022-10-13T05:46:25;44.33;;;31.92;;
41167;SDS011;26906;45.658;9.272;2022-10-13T05:48:51;45.63;;;32.13;;
41167;SDS011;26906;45.658;9.272;2022-10-13T05:51:23;46.85;;;31.55;;
41167;SDS011;26906;45.658;9.272;2022-10-13T05:53:54;49.38;;;32.15;;
41167;SDS011;26906;45.658;9.272;2022-10-13T05:58:54;46.53;;;31.75;;
41167;SDS011;26906;45.658;9.272;2022-10-13T06:01:30;44.83;;;32.47;;
41167;SDS011;26906;45.658;9.272;2022-10-13T06:04:06;49.03;;;33.80;;
41167;SDS011;26906;45.658;9.272;2022-10-13T06:06:36;46.63;;;31.35;;
41167;SDS011;26906;45.658;9.272;2022-10-13T06:09:02;49.72;;;32.67;;
41167;SDS011;26906;45.658;9.272;2022-10-13T06:11:28;43.05;;;31.50;;
41167;SDS011;26906;45.658;9.272;2022-10-13T06:13:54;51.05;;;32.63;;
41167;SDS011;26906;45.658;9.272;2022-10-13T06:16:19;48.67;;;33.35;;
41167;SDS011;26906;45.658;9.272;2022-10-13T06:18:46;45.88;;;32.00;;
41167;SDS011;26906;45.658;9.272;2022-10-13T06:21:12;48.53;;;33.15;;
41167;SDS011;26906;45.658;9.272;2022-10-13T06:23:37;42.83;;;31.52;;
41167;SDS011;26906;45.658;9.272;2022-10-13T06:26:05;47.35;;;33.17;;
41167;SDS011;26906;45.658;9.272;2022-10-13T06:28:32;48.38;;;33.17;;
41167;SDS011;26906;45.658;9.272;2022-10-13T06:30:58;46.35;;;34.00;;
41167;SDS011;26906;45.658;9.272;2022-10-13T06:33:23;49.88;;;35.28;;
41167;SDS011;26906;45.658;9.272;2022-10-13T06:35:50;53.97;;;34.60;;
41167;SDS011;26906;45.658;9.272;2022-10-13T06:38:16;51.80;;;34.47;;
41167;SDS011;26906;45.658;9.272;2022-10-13T06:40:52;57.53;;;34.72;;
41167;SDS011;26906;45.658;9.272;2022-10-13T06:43:24;48.30;;;31.17;;
41167;SDS011;26906;45.658;9.272;2022-10-13T06:45:59;52.63;;;32.47;;
41167;SDS011;26906;45.658;9.272;2022-10-13T06:48:26;46.13;;;33.10;;
41167;SDS011;26906;45.658;9.272;2022-10-13T06:50:54;44.47;;;32.42;;
41167;SDS011;26906;45.658;9.272;2022-10-13T06:53:19;47.75;;;32.92;;
41167;SDS011;26906;45.658;9.272;2022-10-13T06:55:45;48.95;;;33.03;;
41167;SDS011;26906;45.658;9.272;2022-10-13T06:58:11;57.13;;;34.90;;
41167;SDS011;26906;45.658;9.272;2022-10-13T07:00:37;53.05;;;35.05;;
41167;SDS011;26906;45.658;9.272;2022-10-13T07:03:05;50.05;;;32.95;;
41167;SDS011;26906;45.658;9.272;2022-10-13T07:05:30;50.72;;;34.03;;
41167;SDS011;26906;45.658;9.272;2022-10-13T07:07:57;46.83;;;32.80;;
41167;SDS011;26906;45.658;9.272;2022-10-13T07:10:23;46.78;;;32.70;;
41167;SDS011;26906;45.658;9.272;2022-10-13T07:12:49;48.03;;;32.45;;
41167;SDS011;26906;45.658;9.272;2022-10-13T07:15:15;41.97;;;31.83;;
41167;SDS011;26906;45.658;9.272;2022-10-13T07:17:41;43.70;;;31.98;;
41167;SDS011;26906;45.658;9.272;2022-10-13T07:20:06;48.47;;;32.50;;
41167;SDS011;26906;45.658;9.272;2022-10-13T07:22:32;46.72;;;33.22;;
41167;SDS011;26906;45.658;9.272;2022-10-13T07:24:58;44.00;;;32.20;;
41167;SDS011;26906;45.658;9.272;2022-10-13T07:27:24;46.70;;;33.08;;
41167;SDS011;26906;45.658;9.272;2022-10-13T07:29:51;49.22;;;32.90;;
41167;SDS011;26906;45.658;9.272;2022-10-13T07:32:17;43.88;;;31.00;;
41167;SDS011;26906;45.658;9.272;2022-10-13T07:34:42;47.08;;;31.60;;
41167;SDS011;26906;45.658;9.272;2022-10-13T07:37:08;43.33;;;30.27;;
41167;SDS011;26906;45.658;9.272;2022-10-13T07:39:36;38.55;;;28.33;;
41167;SDS011;26906;45.658;9.272;2022-10-13T07:42:02;41.22;;;28.55;;
41167;SDS011;26906;45.658;9.272;2022-10-13T07:44:29;41.92;;;29.88;;
41167;SDS011;26906;45.658;9.272;2022-10-13T07:46:55;43.42;;;30.17;;
41167;SDS011;26906;45.658;9.272;2022-10-13T07:49:21;44.83;;;29.67;;
41167;SDS011;26906;45.658;9.272;2022-10-13T07:51:47;41.42;;;29.65;;
41167;SDS011;26906;45.658;9.272;2022-10-13T07:54:16;49.20;;;31.30;;
41167;SDS011;26906;45.658;9.272;2022-10-13T07:56:43;44.92;;;29.63;;
41167;SDS011;26906;45.658;9.272;2022-10-13T07:59:09;45.63;;;29.38;;
41167;SDS011;26906;45.658;9.272;2022-10-13T08:01:35;41.60;;;28.90;;
41167;SDS011;26906;45.658;9.272;2022-10-13T08:04:01;39.22;;;26.08;;
41167;SDS011;26906;45.658;9.272;2022-10-13T08:06:27;33.33;;;25.25;;
41167;SDS011;26906;45.658;9.272;2022-10-13T08:08:56;34.78;;;24.80;;
41167;SDS011;26906;45.658;9.272;2022-10-13T08:11:22;29.90;;;19.70;;
41167;SDS011;26906;45.658;9.272;2022-10-13T08:13:48;32.65;;;23.02;;
41167;SDS011;26906;45.658;9.272;2022-10-13T08:16:18;30.35;;;22.17;;
41167;SDS011;26906;45.658;9.272;2022-10-13T08:18:45;25.55;;;20.45;;
41167;SDS011;26906;45.658;9.272;2022-10-13T08:21:14;32.22;;;19.95;;
41167;SDS011;26906;45.658;9.272;2022-10-13T08:23:46;27.00;;;19.10;;
41167;SDS011;26906;45.658;9.272;2022-10-13T08:26:17;24.90;;;19.33;;
41167;SDS011;26906;45.658;9.272;2022-10-13T08:28:46;27.10;;;18.63;;
41167;SDS011;26906;45.658;9.272;2022-10-13T08:31:11;30.77;;;18.80;;
41167;SDS011;26906;45.658;9.272;2022-10-13T08:33:37;25.90;;;18.80;;
41167;SDS011;26906;45.658;9.272;2022-10-13T08:36:11;29.58;;;19.25;;
41167;SDS011;26906;45.658;9.272;2022-10-13T08:38:43;28.67;;;19.73;;
41167;SDS011;26906;45.658;9.272;2022-10-13T08:41:13;28.80;;;17.38;;
41167;SDS011;26906;45.658;9.272;2022-10-13T08:43:48;34.05;;;19.70;;
41167;SDS011;26906;45.658;9.272;2022-10-13T08:46:26;28.52;;;19.90;;
41167;SDS011;26906;45.658;9.272;2022-10-13T08:48:56;26.80;;;18.00;;
41167;SDS011;26906;45.658;9.272;2022-10-13T08:51:23;26.02;;;19.70;;
41167;SDS011;26906;45.658;9.272;2022-10-13T08:53:49;31.10;;;19.73;;
41167;SDS011;26906;45.658;9.272;2022-10-13T08:56:19;27.40;;;19.50;;
41167;SDS011;26906;45.658;9.272;2022-10-13T08:58:48;31.52;;;20.33;;
41167;SDS011;26906;45.658;9.272;2022-10-13T09:01:22;31.05;;;19.67;;
41167;SDS011;26906;45.658;9.272;2022-10-13T09:06:46;26.98;;;18.45;;
41167;SDS011;26906;45.658;9.272;2022-10-13T09:09:16;30.85;;;18.15;;
41167;SDS011;26906;45.658;9.272;2022-10-13T09:11:44;32.10;;;18.60;;
41167;SDS011;26906;45.658;9.272;2022-10-13T09:16:47;25.25;;;17.27;;
41167;SDS011;26906;45.658;9.272;2022-10-13T09:19:22;26.70;;;18.13;;
41167;SDS011;26906;45.658;9.272;2022-10-13T09:22:12;25.83;;;17.30;;
41167;SDS011;26906;45.658;9.272;2022-10-13T09:25:21;25.98;;;17.83;;
41167;SDS011;26906;45.658;9.272;2022-10-13T09:27:46;24.98;;;17.17;;
41167;SDS011;26906;45.658;9.272;2022-10-13T09:33:13;25.17;;;17.25;;
41167;SDS011;26906;45.658;9.272;2022-10-13T09:35:48;31.23;;;17.58;;
41167;SDS011;26906;45.658;9.272;2022-10-13T09:38:27;25.95;;;17.45;;
41167;SDS011;26906;45.658;9.272;2022-10-13T09:41:02;26.65;;;17.02;;
41167;SDS011;26906;45.658;9.272;2022-10-13T09:46:22;23.85;;;17.48;;
41167;SDS011;26906;45.658;9.272;2022-10-13T09:48:56;29.27;;;17.77;;
41167;SDS011;26906;45.658;9.272;2022-10-13T09:51:33;26.30;;;17.95;;
41167;SDS011;26906;45.658;9.272;2022-10-13T09:55:00;27.83;;;17.30;;
41167;SDS011;26906;45.658;9.272;2022-10-13T09:57:23;26.38;;;17.15;;
41167;SDS011;26906;45.658;9.272;2022-10-13T10:09:02;32.85;;;19.10;;
41167;SDS011;26906;45.658;9.272;2022-10-13T10:11:08;29.95;;;19.38;;
41167;SDS011;26906;45.658;9.272;2022-10-13T10:13:36;30.05;;;20.13;;
41167;SDS011;26906;45.658;9.272;2022-10-13T10:16:04;31.60;;;19.75;;
41167;SDS011;26906;45.658;9.272;2022-10-13T10:18:50;29.15;;;20.10;;
41167;SDS011;26906;45.658;9.272;2022-10-13T10:29:15;34.15;;;22.60;;
41167;SDS011;26906;45.658;9.272;2022-10-13T10:32:09;31.15;;;21.92;;
41167;SDS011;26906;45.658;9.272;2022-10-13T10:45:27;35.72;;;23.65;;
41167;SDS011;26906;45.658;9.272;2022-10-13T10:47:59;35.20;;;24.58;;
41167;SDS011;26906;45.658;9.272;2022-10-13T10:50:28;37.15;;;23.45;;
41167;SDS011;26906;45.658;9.272;2022-10-13T10:55:38;37.75;;;24.42;;
41167;SDS011;26906;45.658;9.272;2022-10-13T10:58:21;38.88;;;27.10;;
41167;SDS011;26906;45.658;9.272;2022-10-13T11:08:50;39.60;;;26.73;;
41167;SDS011;26906;45.658;9.272;2022-10-13T11:13:58;43.53;;;26.90;;
41167;SDS011;26906;45.658;9.272;2022-10-13T11:16:29;47.95;;;30.60;;
41167;SDS011;26906;45.658;9.272;2022-10-13T11:19:30;41.85;;;29.20;;
41167;SDS011;26906;45.658;9.272;2022-10-13T11:34:59;52.55;;;30.98;;
41167;SDS011;26906;45.658;9.272;2022-10-13T11:43:23;50.22;;;30.45;;
41167;SDS011;26906;45.658;9.272;2022-10-13T11:56:53;40.85;;;29.73;;
41167;SDS011;26906;45.658;9.272;2022-10-13T12:01:59;47.13;;;30.95;;
41167;SDS011;26906;45.658;9.272;2022-10-13T12:04:39;42.05;;;30.02;;
41167;SDS011;26906;45.658;9.272;2022-10-13T12:07:06;48.17;;;32.20;;
41167;SDS011;26906;45.658;9.272;2022-10-13T12:09:54;51.60;;;33.70;;
41167;SDS011;26906;45.658;9.272;2022-10-13T12:12:22;55.42;;;36.58;;
41167;SDS011;26906;45.658;9.272;2022-10-13T12:14:51;54.90;;;37.30;;
41167;SDS011;26906;45.658;9.272;2022-10-13T12:19:51;53.30;;;36.22;;
41167;SDS011;26906;45.658;9.272;2022-10-13T12:22:21;49.00;;;34.78;;
41167;SDS011;26906;45.658;9.272;2022-10-13T12:25:00;56.17;;;35.35;;
41167;SDS011;26906;45.658;9.272;2022-10-13T12:27:27;48.55;;;34.22;;
41167;SDS011;26906;45.658;9.272;2022-10-13T12:29:57;51.60;;;35.13;;
41167;SDS011;26906;45.658;9.272;2022-10-13T12:32:31;53.90;;;35.97;;
41167;SDS011;26906;45.658;9.272;2022-10-13T12:37:47;54.22;;;37.15;;
41167;SDS011;26906;45.658;9.272;2022-10-13T12:40:17;62.42;;;37.65;;
41167;SDS011;26906;45.658;9.272;2022-10-13T12:42:43;51.83;;;35.88;;
41167;SDS011;26906;45.658;9.272;2022-10-13T12:45:14;52.85;;;35.28;;
41167;SDS011;26906;45.658;9.272;2022-10-13T12:52:49;49.58;;;34.20;;
41167;SDS011;26906;45.658;9.272;2022-10-13T12:55:18;55.65;;;34.05;;
41167;SDS011;26906;45.658;9.272;2022-10-13T12:57:45;49.22;;;34.10;;
41167;SDS011;26906;45.658;9.272;2022-10-13T13:02:57;53.53;;;35.05;;
41167;SDS011;26906;45.658;9.272;2022-10-13T13:05:28;52.25;;;34.25;;
41167;SDS011;26906;45.658;9.272;2022-10-13T13:08:02;53.15;;;36.03;;
41167;SDS011;26906;45.658;9.272;2022-10-13T13:10:29;53.22;;;34.80;;
41167;SDS011;26906;45.658;9.272;2022-10-13T13:12:55;53.13;;;35.80;;
41167;SDS011;26906;45.658;9.272;2022-10-13T13:15:38;49.58;;;34.70;;
41167;SDS011;26906;45.658;9.272;2022-10-13T13:21:05;55.67;;;33.72;;
41167;SDS011;26906;45.658;9.272;2022-10-13T13:23:40;47.40;;;32.65;;
41167;SDS011;26906;45.658;9.272;2022-10-13T13:26:19;49.08;;;31.88;;
41167;SDS011;26906;45.658;9.272;2022-10-13T13:28:50;51.35;;;31.20;;
41167;SDS011;26906;45.658;9.272;2022-10-13T13:31:19;44.35;;;31.38;;
41167;SDS011;26906;45.658;9.272;2022-10-13T13:33:46;47.67;;;31.73;;
41167;SDS011;26906;45.658;9.272;2022-10-13T13:36:13;44.40;;;31.90;;
41167;SDS011;26906;45.658;9.272;2022-10-13T13:38:44;47.58;;;32.42;;
41167;SDS011;26906;45.658;9.272;2022-10-13T13:41:10;45.33;;;32.75;;
41167;SDS011;26906;45.658;9.272;2022-10-13T13:43:37;47.35;;;31.02;;
41167;SDS011;26906;45.658;9.272;2022-10-13T13:46:03;44.85;;;28.95;;
41167;SDS011;26906;45.658;9.272;2022-10-13T13:48:31;45.75;;;31.02;;
41167;SDS011;26906;45.658;9.272;2022-10-13T13:50:57;44.75;;;31.60;;
41167;SDS011;26906;45.658;9.272;2022-10-13T13:53:23;45.92;;;30.83;;
41167;SDS011;26906;45.658;9.272;2022-10-13T13:55:49;42.53;;;28.90;;
41167;SDS011;26906;45.658;9.272;2022-10-13T13:58:16;46.45;;;29.45;;
41167;SDS011;26906;45.658;9.272;2022-10-13T14:00:42;39.22;;;28.10;;
41167;SDS011;26906;45.658;9.272;2022-10-13T14:03:08;45.35;;;28.30;;
41167;SDS011;26906;45.658;9.272;2022-10-13T14:05:37;44.30;;;29.50;;
41167;SDS011;26906;45.658;9.272;2022-10-13T14:08:04;43.28;;;29.88;;
41167;SDS011;26906;45.658;9.272;2022-10-13T14:10:31;41.83;;;28.45;;
41167;SDS011;26906;45.658;9.272;2022-10-13T14:12:57;42.22;;;30.08;;
41167;SDS011;26906;45.658;9.272;2022-10-13T14:15:28;46.00;;;29.27;;
41167;SDS011;26906;45.658;9.272;2022-10-13T14:17:54;39.13;;;30.40;;
41167;SDS011;26906;45.658;9.272;2022-10-13T14:20:20;40.28;;;28.90;;
41167;SDS011;26906;45.658;9.272;2022-10-13T14:22:46;41.58;;;28.65;;
41167;SDS011;26906;45.658;9.272;2022-10-13T14:25:12;43.28;;;27.70;;
41167;SDS011;26906;45.658;9.272;2022-10-13T14:27:41;41.97;;;29.42;;
41167;SDS011;26906;45.658;9.272;2022-10-13T14:30:08;44.50;;;29.38;;
41167;SDS011;26906;45.658;9.272;2022-10-13T14:32:37;43.15;;;27.58;;
41167;SDS011;26906;45.658;9.272;2022-10-13T14:35:04;39.50;;;27.70;;
41167;SDS011;26906;45.658;9.272;2022-10-13T14:37:30;39.20;;;26.65;;
41167;SDS011;26906;45.658;9.272;2022-10-13T14:39:56;41.95;;;26.67;;
41167;SDS011;26906;45.658;9.272;2022-10-13T14:42:22;39.33;;;25.90;;
41167;SDS011;26906;45.658;9.272;2022-10-13T14:44:47;40.25;;;25.70;;
41167;SDS011;26906;45.658;9.272;2022-10-13T14:47:13;35.78;;;25.00;;
41167;SDS011;26906;45.658;9.272;2022-10-13T14:49:40;44.33;;;25.10;;
41167;SDS011;26906;45.658;9.272;2022-10-13T14:52:06;40.50;;;25.55;;
41167;SDS011;26906;45.658;9.272;2022-10-13T14:54:32;35.95;;;25.33;;
41167;SDS011;26906;45.658;9.272;2022-10-13T14:56:59;39.83;;;25.20;;
41167;SDS011;26906;45.658;9.272;2022-10-13T14:59:29;34.20;;;23.65;;
41167;SDS011;26906;45.658;9.272;2022-10-13T15:01:55;36.85;;;23.65;;
41167;SDS011;26906;45.658;9.272;2022-10-13T15:04:21;38.75;;;24.85;;
41167;SDS011;26906;45.658;9.272;2022-10-13T15:06:46;33.63;;;23.98;;
41167;SDS011;26906;45.658;9.272;2022-10-13T15:09:12;47.80;;;25.65;;
41167;SDS011;26906;45.658;9.272;2022-10-13T15:11:38;35.38;;;23.23;;
41167;SDS011;26906;45.658;9.272;2022-10-13T15:14:04;39.13;;;23.90;;
41167;SDS011;26906;45.658;9.272;2022-10-13T15:16:30;32.97;;;23.70;;
41167;SDS011;26906;45.658;9.272;2022-10-13T15:19:01;38.17;;;24.77;;
41167;SDS011;26906;45.658;9.272;2022-10-13T15:21:27;37.20;;;23.83;;
41167;SDS011;26906;45.658;9.272;2022-10-13T15:24:04;33.50;;;22.40;;
41167;SDS011;26906;45.658;9.272;2022-10-13T15:26:33;36.90;;;23.17;;
41167;SDS011;26906;45.658;9.272;2022-10-13T15:29:00;31.67;;;23.23;;
41167;SDS011;26906;45.658;9.272;2022-10-13T15:31:27;38.42;;;23.35;;
41167;SDS011;26906;45.658;9.272;2022-10-13T15:33:55;39.35;;;23.92;;
41167;SDS011;26906;45.658;9.272;2022-10-13T15:36:21;31.80;;;23.33;;
41167;SDS011;26906;45.658;9.272;2022-10-13T15:38:48;34.47;;;23.05;;
41167;SDS011;26906;45.658;9.272;2022-10-13T15:41:14;40.20;;;24.33;;
41167;SDS011;26906;45.658;9.272;2022-10-13T15:43:43;41.38;;;23.60;;
41167;SDS011;26906;45.658;9.272;2022-10-13T15:46:12;31.45;;;21.55;;
41167;SDS011;26906;45.658;9.272;2022-10-13T15:48:45;40.45;;;24.85;;
41167;SDS011;26906;45.658;9.272;2022-10-13T15:51:16;35.35;;;21.83;;
41167;SDS011;26906;45.658;9.272;2022-10-13T15:53:44;33.22;;;21.52;;
41167;SDS011;26906;45.658;9.272;2022-10-13T15:56:11;35.78;;;24.65;;
41167;SDS011;26906;45.658;9.272;2022-10-13T15:58:36;41.88;;;26.58;;
41167;SDS011;26906;45.658;9.272;2022-10-13T16:01:06;34.63;;;24.98;;
41167;SDS011;26906;45.658;9.272;2022-10-13T16:03:32;39.15;;;26.15;;
41167;SDS011;26906;45.658;9.272;2022-10-13T16:05:58;39.00;;;25.73;;
41167;SDS011;26906;45.658;9.272;2022-10-13T16:08:28;41.70;;;28.63;;
41167;SDS011;26906;45.658;9.272;2022-10-13T16:10:54;43.17;;;29.77;;
41167;SDS011;26906;45.658;9.272;2022-10-13T16:13:19;45.53;;;29.45;;
41167;SDS011;26906;45.658;9.272;2022-10-13T16:15:55;45.42;;;31.70;;
41167;SDS011;26906;45.658;9.272;2022-10-13T16:18:32;47.10;;;31.13;;
41167;SDS011;26906;45.658;9.272;2022-10-13T16:20:59;47.13;;;32.10;;
41167;SDS011;26906;45.658;9.272;2022-10-13T16:23:33;50.67;;;31.65;;
41167;SDS011;26906;45.658;9.272;2022-10-13T16:26:00;49.67;;;33.38;;
41167;SDS011;26906;45.658;9.272;2022-10-13T16:28:26;50.90;;;34.08;;
41167;SDS011;26906;45.658;9.272;2022-10-13T16:30:52;56.78;;;34.55;;
41167;SDS011;26906;45.658;9.272;2022-10-13T16:33:18;54.22;;;34.15;;
41167;SDS011;26906;45.658;9.272;2022-10-13T16:35:43;50.60;;;34.47;;
41167;SDS011;26906;45.658;9.272;2022-10-13T16:38:12;50.35;;;34.88;;
41167;SDS011;26906;45.658;9.272;2022-10-13T16:40:38;45.28;;;31.73;;
41167;SDS011;26906;45.658;9.272;2022-10-13T16:43:04;40.35;;;30.33;;
41167;SDS011;26906;45.658;9.272;2022-10-13T16:45:30;40.85;;;28.73;;
41167;SDS011;26906;45.658;9.272;2022-10-13T16:47:56;41.75;;;26.88;;
41167;SDS011;26906;45.658;9.272;2022-10-13T16:50:22;40.67;;;25.77;;
41167;SDS011;26906;45.658;9.272;2022-10-13T16:52:48;40.00;;;26.67;;
41167;SDS011;26906;45.658;9.272;2022-10-13T16:55:14;33.90;;;23.52;;
41167;SDS011;26906;45.658;9.272;2022-10-13T16:57:40;36.08;;;23.55;;
41167;SDS011;26906;45.658;9.272;2022-10-13T17:00:06;34.70;;;23.58;;
41167;SDS011;26906;45.658;9.272;2022-10-13T17:02:33;33.35;;;24.10;;
41167;SDS011;26906;45.658;9.272;2022-10-13T17:04:59;43.72;;;29.58;;
41167;SDS011;26906;45.658;9.272;2022-10-13T17:07:25;44.25;;;28.98;;
41167;SDS011;26906;45.658;9.272;2022-10-13T17:09:51;48.17;;;30.23;;
41167;SDS011;26906;45.658;9.272;2022-10-13T17:12:16;49.03;;;31.08;;
41167;SDS011;26906;45.658;9.272;2022-10-13T17:14:42;48.65;;;32.65;;
41167;SDS011;26906;45.658;9.272;2022-10-13T17:17:08;46.92;;;31.92;;
41167;SDS011;26906;45.658;9.272;2022-10-13T17:19:33;45.53;;;31.73;;
41167;SDS011;26906;45.658;9.272;2022-10-13T17:21:59;45.55;;;31.38;;
41167;SDS011;26906;45.658;9.272;2022-10-13T17:24:25;44.35;;;30.13;;
41167;SDS011;26906;45.658;9.272;2022-10-13T17:26:50;47.15;;;30.42;;
41167;SDS011;26906;45.658;9.272;2022-10-13T17:29:16;44.55;;;30.40;;
41167;SDS011;26906;45.658;9.272;2022-10-13T17:31:42;43.25;;;29.90;;
41167;SDS011;26906;45.658;9.272;2022-10-13T17:34:08;46.50;;;31.63;;
41167;SDS011;26906;45.658;9.272;2022-10-13T17:36:34;47.53;;;30.92;;
41167;SDS011;26906;45.658;9.272;2022-10-13T17:39:07;50.15;;;31.55;;
41167;SDS011;26906;45.658;9.272;2022-10-13T17:41:37;43.72;;;31.30;;
41167;SDS011;26906;45.658;9.272;2022-10-13T17:44:03;47.30;;;32.72;;
41167;SDS011;26906;45.658;9.272;2022-10-13T17:46:30;59.90;;;35.00;;
41167;SDS011;26906;45.658;9.272;2022-10-13T17:48:56;54.58;;;37.15;;
41167;SDS011;26906;45.658;9.272;2022-10-13T17:51:24;50.20;;;35.97;;
41167;SDS011;26906;45.658;9.272;2022-10-13T17:53:50;54.35;;;36.05;;
41167;SDS011;26906;45.658;9.272;2022-10-13T17:56:22;48.95;;;33.92;;
41167;SDS011;26906;45.658;9.272;2022-10-13T17:58:48;49.70;;;34.78;;
41167;SDS011;26906;45.658;9.272;2022-10-13T18:01:20;50.33;;;33.53;;
41167;SDS011;26906;45.658;9.272;2022-10-13T18:06:24;51.75;;;35.50;;
41167;SDS011;26906;45.658;9.272;2022-10-13T18:08:52;50.90;;;35.67;;
41167;SDS011;26906;45.658;9.272;2022-10-13T18:11:18;53.05;;;36.22;;
41167;SDS011;26906;45.658;9.272;2022-10-13T18:13:45;56.85;;;35.53;;
41167;SDS011;26906;45.658;9.272;2022-10-13T18:16:12;52.88;;;35.38;;
41167;SDS011;26906;45.658;9.272;2022-10-13T18:18:43;55.88;;;35.05;;
41167;SDS011;26906;45.658;9.272;2022-10-13T18:21:11;51.55;;;35.30;;
41167;SDS011;26906;45.658;9.272;2022-10-13T18:23:40;53.53;;;34.15;;
41167;SDS011;26906;45.658;9.272;2022-10-13T18:26:07;46.83;;;31.92;;
41167;SDS011;26906;45.658;9.272;2022-10-13T18:28:38;51.50;;;34.65;;
41167;SDS011;26906;45.658;9.272;2022-10-13T18:33:42;55.85;;;34.47;;
41167;SDS011;26906;45.658;9.272;2022-10-13T18:38:41;44.47;;;32.05;;
41167;SDS011;26906;45.658;9.272;2022-10-13T18:41:07;50.33;;;35.35;;
41167;SDS011;26906;45.658;9.272;2022-10-13T18:43:36;59.35;;;35.72;;
41167;SDS011;26906;45.658;9.272;2022-10-13T18:46:02;56.00;;;37.30;;
41167;SDS011;26906;45.658;9.272;2022-10-13T18:48:29;59.20;;;38.83;;
41167;SDS011;26906;45.658;9.272;2022-10-13T18:51:05;54.88;;;37.72;;
41167;SDS011;26906;45.658;9.272;2022-10-13T18:53:35;59.28;;;38.53;;
41167;SDS011;26906;45.658;9.272;2022-10-13T18:56:03;52.30;;;36.63;;
41167;SDS011;26906;45.658;9.272;2022-10-13T18:58:49;53.45;;;37.28;;
41167;SDS011;26906;45.658;9.272;2022-10-13T19:01:17;60.33;;;36.72;;
41167;SDS011;26906;45.658;9.272;2022-10-13T19:03:44;59.42;;;38.97;;
41167;SDS011;26906;45.658;9.272;2022-10-13T19:06:12;56.30;;;36.90;;
41167;SDS011;26906;45.658;9.272;2022-10-13T19:08:40;55.83;;;36.05;;
41167;SDS011;26906;45.658;9.272;2022-10-13T19:11:14;54.03;;;37.28;;
41167;SDS011;26906;45.658;9.272;2022-10-13T19:13:42;58.83;;;38.78;;
41167;SDS011;26906;45.658;9.272;2022-10-13T19:16:08;53.00;;;33.55;;
41167;SDS011;26906;45.658;9.272;2022-10-13T19:18:35;49.38;;;33.28;;
41167;SDS011;26906;45.658;9.272;2022-10-13T19:21:01;53.10;;;34.67;;
41167;SDS011;26906;45.658;9.272;2022-10-13T19:23:28;58.67;;;37.13;;
41167;SDS011;26906;45.658;9.272;2022-10-13T19:25:53;48.05;;;35.67;;
41167;SDS011;26906;45.658;9.272;2022-10-13T19:28:19;55.00;;;38.78;;
41167;SDS011;26906;45.658;9.272;2022-10-13T19:30:46;56.35;;;38.60;;
41167;SDS011;26906;45.658;9.272;2022-10-13T19:33:12;61.42;;;41.72;;
41167;SDS011;26906;45.658;9.272;2022-10-13T19:35:46;65.65;;;42.90;;
41167;SDS011;26906;45.658;9.272;2022-10-13T19:38:15;63.22;;;42.80;;
41167;SDS011;26906;45.658;9.272;2022-10-13T19:40:42;63.28;;;43.00;;
41167;SDS011;26906;45.658;9.272;2022-10-13T19:43:11;58.60;;;40.60;;
41167;SDS011;26906;45.658;9.272;2022-10-13T19:46:10;56.45;;;41.50;;
41167;SDS011;26906;45.658;9.272;2022-10-13T19:48:30;64.63;;;41.08;;
41167;SDS011;26906;45.658;9.272;2022-10-13T19:50:56;61.97;;;40.05;;
41167;SDS011;26906;45.658;9.272;2022-10-13T19:53:24;54.58;;;39.90;;
41167;SDS011;26906;45.658;9.272;2022-10-13T19:55:53;59.05;;;42.22;;
41167;SDS011;26906;45.658;9.272;2022-10-13T19:58:19;56.80;;;40.97;;
41167;SDS011;26906;45.658;9.272;2022-10-13T20:00:48;58.67;;;39.65;;
41167;SDS011;26906;45.658;9.272;2022-10-13T20:03:14;59.35;;;39.65;;
41167;SDS011;26906;45.658;9.272;2022-10-13T20:05:43;58.42;;;40.75;;
41167;SDS011;26906;45.658;9.272;2022-10-13T20:08:10;62.88;;;41.00;;
41167;SDS011;26906;45.658;9.272;2022-10-13T20:10:37;64.05;;;42.33;;
41167;SDS011;26906;45.658;9.272;2022-10-13T20:13:03;63.53;;;42.90;;
41167;SDS011;26906;45.658;9.272;2022-10-13T20:15:30;68.63;;;45.42;;
41167;SDS011;26906;45.658;9.272;2022-10-13T20:18:00;66.85;;;44.85;;
41167;SDS011;26906;45.658;9.272;2022-10-13T20:20:26;61.40;;;44.22;;
